Time;durP1;ratioP1;P1;durP2;ratioP2;P2;SDS_P1;SDS_P2;PMS_P1;PMS_P2;Temp;Humidity;BMP_temperature;BMP_pressure;BME280_temperature;BME280_humidity;BME280_pressure;Samples;Min_cycle;Max_cycle;Signal;HPM_P1;HPM_P2
2021/11/30 00:00:04;;;;;;;14.68;5.88;;;;;;;2.34;96.33;100941.53;2073645;28;20064;-67
2021/11/30 00:01:08;;;;;;;13.68;6.63;;;;;;;2.33;96.33;100945.00;2073678;28;20038;-67
2021/11/30 00:02:08;;;;;;;16.05;7.25;;;;;;;2.34;96.36;100940.69;2073585;28;20092;-66
2021/11/30 00:03:08;;;;;;;17.63;7.17;;;;;;;2.33;95.56;100934.69;2073597;28;20419;-66
2021/11/30 00:04:09;;;;;;;14.13;5.83;;;;;;;2.35;95.95;100926.94;2064844;28;20048;-66
2021/11/30 00:05:09;;;;;;;14.00;5.63;;;;;;;2.35;95.95;100925.22;2064866;28;20064;-68
2021/11/30 00:06:10;;;;;;;13.53;6.37;;;;;;;2.36;96.03;100928.66;2073561;28;20028;-69
2021/11/30 00:07:10;;;;;;;17.20;6.18;;;;;;;2.33;95.70;100924.38;2073605;28;20021;-69
2021/11/30 00:08:12;;;;;;;13.63;7.20;;;;;;;2.34;96.31;100935.53;2073566;28;20026;-69
2021/11/30 00:10:43;;;;;;;14.57;6.47;;;;;;;2.29;96.47;100923.53;2073783;28;20160;-67
2021/11/30 00:11:44;;;;;;;17.25;5.10;;;;;;;2.31;96.17;100926.09;2073545;28;20393;-65
2021/11/30 00:12:45;;;;;;;9.20;6.03;;;;;;;2.30;95.92;100920.09;2073599;28;20018;-66
2021/11/30 00:13:45;;;;;;;12.57;5.65;;;;;;;2.30;95.49;100908.94;2073570;28;20029;-67
2021/11/30 00:14:48;;;;;;;11.87;5.90;;;;;;;2.30;95.40;100920.09;2073589;28;20494;-68
2021/11/30 00:15:54;;;;;;;10.57;5.55;;;;;;;2.30;95.22;100914.94;2073537;28;20068;-68
2021/11/30 00:16:56;;;;;;;11.23;5.82;;;;;;;2.30;95.64;100912.34;2073493;28;20065;-68
2021/11/30 00:17:56;;;;;;;11.63;5.40;;;;;;;2.30;95.32;100920.09;2073449;28;20030;-69
2021/11/30 00:18:57;;;;;;;10.93;5.43;;;;;;;2.28;95.54;100910.66;2073521;28;20121;-68
2021/11/30 00:19:57;;;;;;;8.80;5.70;;;;;;;2.28;95.47;100927.00;2073502;28;20105;-68
2021/11/30 00:20:59;;;;;;;10.40;6.10;;;;;;;2.27;95.29;100925.28;2064830;28;20050;-68
2021/11/30 00:22:00;;;;;;;10.50;5.03;;;;;;;2.28;95.27;100920.97;2065017;28;20059;-68
2021/11/30 00:23:00;;;;;;;11.07;6.30;;;;;;;2.27;95.48;100925.28;2073501;28;20489;-66
2021/11/30 00:24:01;;;;;;;10.90;5.97;;;;;;;2.28;94.90;100913.25;2073564;28;20065;-67
2021/11/30 00:25:01;;;;;;;8.40;5.40;;;;;;;2.27;95.17;100909.84;2073462;28;20029;-69
2021/11/30 00:26:03;;;;;;;10.40;5.63;;;;;;;2.26;95.05;100928.69;2073496;28;20527;-67
2021/11/30 00:27:05;;;;;;;10.55;6.07;;;;;;;2.24;95.09;100920.16;2073469;28;20026;-68
2021/11/30 00:28:07;;;;;;;7.88;4.85;;;;;;;2.24;94.55;100917.56;2073514;28;20025;-67
2021/11/30 00:29:07;;;;;;;10.98;5.80;;;;;;;2.26;94.84;100913.25;2073463;28;20026;-68
2021/11/30 00:30:08;;;;;;;10.33;5.60;;;;;;;2.24;94.66;100922.72;2073462;28;20136;-69
2021/11/30 00:31:08;;;;;;;10.17;5.80;;;;;;;2.26;94.99;100909.84;2073535;28;20052;-67
2021/11/30 00:32:09;;;;;;;11.00;5.60;;;;;;;2.27;94.61;100907.25;2073473;28;20037;-67
2021/11/30 00:33:10;;;;;;;11.55;5.88;;;;;;;2.25;94.15;100906.41;2073507;28;20066;-66
2021/11/30 00:34:10;;;;;;;12.10;5.60;;;;;;;2.26;94.25;100899.53;2073510;28;20072;-67
2021/11/30 00:35:10;;;;;;;12.47;6.07;;;;;;;2.25;94.24;100901.25;2073544;28;20438;-65
2021/11/30 00:36:11;;;;;;;10.57;6.13;;;;;;;2.25;94.04;100898.66;2073504;28;20018;-67
2021/11/30 00:37:11;;;;;;;12.70;6.37;;;;;;;2.25;94.13;100901.25;2073568;28;20092;-67
2021/11/30 00:38:13;;;;;;;10.43;5.93;;;;;;;2.26;93.97;100896.97;2073473;28;20036;-67
2021/11/30 00:39:14;;;;;;;8.45;5.20;;;;;;;2.26;94.30;100887.50;2064619;28;20064;-67
2021/11/30 00:40:14;;;;;;;7.37;5.80;;;;;;;2.25;93.40;100885.78;2064786;28;20023;-69
2021/11/30 00:41:14;;;;;;;7.97;5.00;;;;;;;2.25;93.68;100888.38;2073417;28;20520;-68
2021/11/30 00:42:15;;;;;;;10.43;6.00;;;;;;;2.26;92.87;100886.66;2073478;28;20026;-69
2021/11/30 00:43:21;;;;;;;8.77;5.67;;;;;;;2.27;92.96;100884.06;2073382;28;20050;-67
2021/11/30 00:44:24;;;;;;;8.82;6.38;;;;;;;2.26;93.53;100874.63;2073420;28;20025;-69
2021/11/30 00:45:35;;;;;;;12.15;6.38;;;;;;;2.26;93.25;100879.78;2073443;28;20030;-67
2021/11/30 00:46:38;;;;;;;7.47;5.00;;;;;;;2.24;93.36;100884.09;2064653;28;20572;-67
2021/11/30 00:47:45;;;;;;;8.75;5.65;;;;;;;2.23;93.61;100882.38;2065084;28;20141;-69
2021/11/30 00:48:46;;;;;;;7.38;5.50;;;;;;;2.24;93.20;100883.22;2073423;28;20026;-67
2021/11/30 00:49:47;;;;;;;9.90;5.53;;;;;;;2.24;93.38;100871.22;2073518;28;20083;-68
2021/11/30 00:50:52;;;;;;;8.38;5.25;;;;;;;2.26;92.75;100866.06;2073460;28;20026;-66
2021/11/30 00:51:55;;;;;;;11.18;6.28;;;;;;;2.26;92.77;100861.75;2073413;28;20505;-68
2021/11/30 00:52:55;;;;;;;10.77;5.32;;;;;;;2.25;92.59;100867.75;2064642;28;20531;-69
2021/11/30 00:53:56;;;;;;;9.63;6.13;;;;;;;2.24;93.17;100863.50;2064801;28;20054;-68
2021/11/30 00:54:57;;;;;;;8.70;5.05;;;;;;;2.24;93.00;100860.91;2073501;28;20014;-68
2021/11/30 00:55:57;;;;;;;10.07;5.50;;;;;;;2.23;93.39;100851.50;2073549;28;20533;-69
2021/11/30 00:56:58;;;;;;;10.40;4.77;;;;;;;2.21;93.36;100855.78;2073444;28;20057;-68
2021/11/30 00:57:59;;;;;;;8.50;4.65;;;;;;;2.21;94.08;100860.06;2073478;28;20368;-68
2021/11/30 00:58:59;;;;;;;8.07;5.30;;;;;;;2.20;93.50;100854.06;2073470;28;20041;-66
2021/11/30 00:59:59;;;;;;;6.53;4.70;;;;;;;2.21;93.45;100847.19;2073418;28;20113;-68
2021/11/30 01:01:00;;;;;;;8.47;5.17;;;;;;;2.21;93.22;100836.88;2073488;28;20040;-66
2021/11/30 01:02:01;;;;;;;6.45;4.45;;;;;;;2.20;93.17;100836.06;2073429;28;20038;-68
2021/11/30 01:03:05;;;;;;;6.77;4.43;;;;;;;2.20;93.67;100841.19;2073468;28;20065;-69
2021/11/30 01:04:10;;;;;;;10.70;4.40;;;;;;;2.19;93.54;100829.19;2073349;28;20040;-68
2021/11/30 01:05:12;;;;;;;9.60;4.30;;;;;;;2.17;93.58;100841.22;2073566;28;20025;-69
2021/11/30 01:06:12;;;;;;;10.80;4.57;;;;;;;2.19;92.62;100844.66;2073338;28;20494;-66
2021/11/30 01:07:12;;;;;;;10.23;4.80;;;;;;;2.19;93.08;100836.94;2073444;28;20072;-63
2021/11/30 01:08:13;;;;;;;5.67;4.47;;;;;;;2.18;92.77;100824.91;2073507;28;20112;-66
2021/11/30 01:09:13;;;;;;;5.40;3.70;;;;;;;2.19;92.76;100839.50;2073480;28;20038;-67
2021/11/30 01:10:15;;;;;;;8.07;4.50;;;;;;;2.17;93.33;100830.91;2064695;28;20026;-66
2021/11/30 01:11:16;;;;;;;7.03;4.35;;;;;;;2.17;92.90;100830.91;2064638;28;20519;-69
2021/11/30 01:12:16;;;;;;;7.28;3.97;;;;;;;2.17;92.57;100841.22;2056671;28;20023;-67
2021/11/30 01:13:17;;;;;;;8.37;4.10;;;;;;;2.17;93.59;100830.91;2065578;28;20066;-69
2021/11/30 01:14:18;;;;;;;9.25;3.88;;;;;;;2.14;93.28;100830.94;2074896;28;20501;-68
2021/11/30 01:15:20;;;;;;;7.28;3.67;;;;;;;2.13;93.29;100824.09;2066128;28;20036;-66
2021/11/30 01:16:20;;;;;;;8.15;3.70;;;;;;;2.12;93.71;100822.38;2066408;28;20027;-68
2021/11/30 01:17:20;;;;;;;7.50;4.07;;;;;;;2.10;94.15;100821.53;2074960;28;20060;-69
2021/11/30 01:18:21;;;;;;;6.97;4.53;;;;;;;2.11;93.67;100831.81;2074926;28;20034;-68
2021/11/30 01:19:21;;;;;;;5.83;3.60;;;;;;;2.10;93.81;100824.97;2066154;28;20046;-69
2021/11/30 01:20:21;;;;;;;8.27;3.63;;;;;;;2.10;93.80;100821.53;2066311;28;20046;-67
2021/11/30 01:21:22;;;;;;;7.05;3.72;;;;;;;2.09;94.09;100822.41;2074878;28;20084;-66
2021/11/30 01:22:22;;;;;;;6.18;2.88;;;;;;;2.10;93.75;100818.94;2074956;28;20026;-68
2021/11/30 01:23:25;;;;;;;9.17;3.30;;;;;;;2.10;94.72;100813.81;2066203;28;20113;-69
2021/11/30 01:24:25;;;;;;;6.38;3.55;;;;;;;2.08;94.00;100820.69;2066475;28;20368;-68
2021/11/30 01:25:26;;;;;;;8.83;3.73;;;;;;;2.09;93.48;100812.09;2066067;28;20031;-68
2021/11/30 01:26:26;;;;;;;5.38;3.20;;;;;;;2.05;94.47;100817.28;2066145;28;20376;-66
2021/11/30 01:27:27;;;;;;;6.60;2.97;;;;;;;2.04;94.83;100805.28;2074812;28;20092;-66
2021/11/30 01:28:28;;;;;;;6.17;3.63;;;;;;;2.01;95.21;100809.56;2074800;28;20033;-67
2021/11/30 01:29:28;;;;;;;5.07;3.25;;;;;;;2.00;94.93;100815.59;2074832;28;20030;-67
2021/11/30 01:30:29;;;;;;;11.90;3.40;;;;;;;1.98;95.54;100807.88;2074614;28;20033;-67
2021/11/30 01:31:31;;;;;;;5.50;2.90;;;;;;;1.95;95.90;100813.03;2074694;28;20057;-66
2021/11/30 01:32:31;;;;;;;5.83;3.23;;;;;;;1.95;96.48;100812.22;2074770;28;20072;-66
2021/11/30 01:33:35;;;;;;;4.37;2.73;;;;;;;1.92;96.13;100805.38;2074771;28;20370;-67
2021/11/30 01:34:35;;;;;;;8.52;3.38;;;;;;;1.91;96.25;100803.63;2074729;28;20022;-66
2021/11/30 01:35:36;;;;;;;5.07;2.83;;;;;;;1.90;96.85;100809.66;2074676;28;20050;-67
2021/11/30 01:36:36;;;;;;;4.83;3.13;;;;;;;1.89;97.15;100810.53;2074777;28;20034;-67
2021/11/30 01:37:38;;;;;;;6.73;3.20;;;;;;;1.88;96.82;100813.97;2074645;28;20833;-68
2021/11/30 01:38:38;;;;;;;9.15;3.42;;;;;;;1.87;97.22;100807.97;2074668;28;20037;-66
2021/11/30 01:39:40;;;;;;;6.00;3.60;;;;;;;1.88;97.31;100808.81;2074645;28;20108;-66
2021/11/30 01:40:42;;;;;;;6.93;2.55;;;;;;;1.88;97.20;100813.97;2074623;28;20104;-65
2021/11/30 01:41:43;;;;;;;;;;;;;;;1.90;97.13;100804.50;2075105;28;20351;-67
2021/11/30 01:42:46;;;;;;;4.40;2.67;;;;;;;1.89;97.39;100815.69;2074517;28;19924;-67
2021/11/30 01:43:48;;;;;;;7.13;2.90;;;;;;;1.90;97.46;100817.38;2074646;28;20566;-66
2021/11/30 01:44:51;;;;;;;8.55;3.13;;;;;;;1.90;97.67;100817.38;2074753;28;20032;-66
2021/11/30 01:46:00;;;;;;;5.53;2.97;;;;;;;1.89;97.71;100815.69;2074665;28;20087;-66
2021/11/30 01:50:37;;;;;;;8.25;3.08;;;;;;;1.90;98.00;100817.38;2057510;28;20027;-64
2021/11/30 01:51:37;;;;;;;6.90;3.45;;;;;;;1.89;98.04;100813.94;2069851;28;20041;-65
2021/11/30 01:52:38;;;;;;;4.60;3.00;;;;;;;1.91;97.94;100808.78;2074614;28;20380;-65
2021/11/30 01:53:39;;;;;;;6.43;3.67;;;;;;;1.91;98.34;100808.78;2074609;28;20025;-67
2021/11/30 01:54:41;;;;;;;5.90;3.42;;;;;;;1.89;98.11;100808.78;2065714;28;20282;-65
2021/11/30 01:55:45;;;;;;;4.43;3.70;;;;;;;1.87;98.70;100805.38;2066059;28;20018;-66
2021/11/30 01:56:45;;;;;;;5.50;3.47;;;;;;;1.85;98.51;100791.66;2065838;28;20109;-68
2021/11/30 01:57:46;;;;;;;7.47;3.80;;;;;;;1.87;98.50;100796.81;2065888;28;20022;-65
2021/11/30 01:58:48;;;;;;;6.72;3.80;;;;;;;1.86;98.68;100789.94;2074536;28;20387;-69
2021/11/30 01:59:50;;;;;;;4.57;3.35;;;;;;;1.85;98.95;100788.25;2074396;28;20033;-64
2021/11/30 02:00:50;;;;;;;4.55;2.80;;;;;;;1.85;99.29;100780.53;2074505;28;20169;-67
2021/11/30 02:01:51;;;;;;;7.03;4.73;;;;;;;1.85;99.22;100772.81;2065806;28;20069;-66
2021/11/30 02:02:51;;;;;;;6.93;4.10;;;;;;;1.85;99.72;100772.81;2065788;28;20034;-67
2021/11/30 02:03:52;;;;;;;5.00;3.40;;;;;;;1.85;99.32;100765.09;2074506;28;20022;-66
2021/11/30 02:04:52;;;;;;;7.90;4.17;;;;;;;1.86;99.24;100771.94;2074439;28;20030;-66
2021/11/30 02:05:52;;;;;;;9.27;3.97;;;;;;;1.87;99.60;100765.91;2074476;28;20084;-67
2021/11/30 02:06:53;;;;;;;5.53;3.47;;;;;;;1.88;99.53;100767.66;2065666;28;20022;-66
2021/11/30 02:07:53;;;;;;;9.83;3.17;;;;;;;1.91;99.30;100762.44;2065815;28;20022;-66
2021/11/30 02:08:53;;;;;;;6.90;4.40;;;;;;;1.91;99.21;100762.44;2074472;28;20076;-68
2021/11/30 02:09:54;;;;;;;7.78;4.07;;;;;;;1.94;99.55;100757.28;2074486;28;20029;-66
2021/11/30 02:10:56;;;;;;;6.60;3.67;;;;;;;1.93;99.50;100751.31;2074514;28;20025;-66
2021/11/30 02:11:57;;;;;;;6.00;4.03;;;;;;;1.94;99.72;100747.00;2074436;28;20036;-68
2021/11/30 02:12:58;;;;;;;7.40;3.70;;;;;;;1.95;99.41;100747.84;2074420;28;20029;-67
2021/11/30 02:13:58;;;;;;;8.80;4.00;;;;;;;1.93;99.79;100735.00;2074442;28;20029;-67
2021/11/30 02:15:01;;;;;;;6.30;3.63;;;;;;;1.91;99.99;100740.16;2074517;28;20041;-67
2021/11/30 02:16:02;;;;;;;6.38;3.90;;;;;;;1.90;100.00;100735.00;2074429;28;20109;-67
2021/11/30 02:17:05;;;;;;;9.50;3.92;;;;;;;1.88;100.00;100747.06;2074304;28;20495;-67
2021/11/30 02:18:12;;;;;;;7.22;3.75;;;;;;;1.88;100.00;100736.75;2074372;28;20025;-66
2021/11/30 02:19:13;;;;;;;6.70;3.83;;;;;;;1.87;100.00;100742.75;2074269;28;20041;-67
2021/11/30 02:20:13;;;;;;;8.15;4.55;;;;;;;1.86;100.00;100733.34;2065550;28;20557;-65
2021/11/30 02:21:14;;;;;;;7.87;4.03;;;;;;;1.85;100.00;100731.63;2065649;28;20064;-66
2021/11/30 02:22:15;;;;;;;7.10;4.28;;;;;;;1.86;100.00;100723.91;2065737;28;20026;-66
2021/11/30 02:24:16;;;;;;;7.40;4.85;;;;;;;1.86;100.00;100717.88;2074383;28;20498;-69
2021/11/30 02:24:45;;;;;;;8.35;3.78;;;;;;;1.85;100.00;100718.75;2060172;28;20499;-67
2021/11/30 02:25:46;;;;;;;6.57;3.97;;;;;;;1.85;100.00;100718.75;2074457;28;20037;-67
2021/11/30 02:26:46;;;;;;;6.70;4.37;;;;;;;1.86;100.00;100712.75;2074323;28;20029;-66
2021/11/30 02:27:47;;;;;;;8.53;4.57;;;;;;;1.86;100.00;100713.59;2074331;28;20064;-67
2021/11/30 02:28:50;;;;;;;7.25;4.15;;;;;;;1.86;100.00;100712.75;2074294;28;20030;-68
2021/11/30 02:29:51;;;;;;;10.57;4.70;;;;;;;1.87;100.00;100706.72;2074275;28;20024;-66
2021/11/30 02:30:51;;;;;;;8.15;4.50;;;;;;;1.88;100.00;100716.19;2065518;28;20045;-67
2021/11/30 02:31:51;;;;;;;6.30;4.33;;;;;;;1.88;100.00;100705.88;2065532;28;20022;-69
2021/11/30 02:32:53;;;;;;;6.00;4.57;;;;;;;1.89;100.00;100702.44;2074271;28;20060;-67
2021/11/30 02:33:54;;;;;;;7.82;4.35;;;;;;;1.91;100.00;100708.41;2074264;28;20041;-65
2021/11/30 02:34:54;;;;;;;6.68;3.90;;;;;;;1.91;100.00;100700.69;2065517;28;20019;-69
2021/11/30 02:35:55;;;;;;;8.03;4.73;;;;;;;1.91;100.00;100695.53;2057466;28;20046;-67
2021/11/30 02:37:04;;;;;;;8.55;4.82;;;;;;;1.91;100.00;100693.81;2057419;28;20022;-65
2021/11/30 02:38:08;;;;;;;7.00;4.35;;;;;;;1.93;100.00;100688.66;2066702;28;20026;-67
2021/11/30 02:39:11;;;;;;;7.57;4.55;;;;;;;1.93;100.00;100686.97;2074051;28;20040;-66
2021/11/30 02:40:12;;;;;;;6.78;4.95;;;;;;;1.94;100.00;100682.63;2065325;28;20084;-66
2021/11/30 02:41:12;;;;;;;8.02;4.82;;;;;;;1.96;100.00;100683.50;2065495;28;20145;-67
2021/11/30 02:42:13;;;;;;;8.13;5.77;;;;;;;1.97;100.00;100679.19;2065479;28;20333;-68
2021/11/30 02:43:13;;;;;;;15.53;5.30;;;;;;;1.98;100.00;100674.03;2065159;28;20051;-66
2021/11/30 02:44:16;;;;;;;8.13;5.03;;;;;;;1.99;100.00;100668.00;2065437;28;20491;-67
2021/11/30 02:45:17;;;;;;;7.43;4.25;;;;;;;2.03;100.00;100669.72;2074173;28;20041;-70
2021/11/30 02:46:37;;;;;;;7.93;5.20;;;;;;;2.03;100.00;100667.13;2074165;28;20573;-67
2021/11/30 02:47:37;;;;;;;9.23;5.72;;;;;;;2.04;100.00;100676.56;2074076;28;20045;-69
2021/11/30 02:48:38;;;;;;;6.53;4.70;;;;;;;2.06;100.00;100654.19;2074189;28;20033;-68
2021/11/30 02:49:40;;;;;;;5.53;4.80;;;;;;;2.08;100.00;100663.66;2074208;28;20045;-68
2021/11/30 02:50:42;;;;;;;7.95;4.88;;;;;;;2.08;100.00;100661.91;2074029;28;20029;-67
2021/11/30 02:51:47;;;;;;;8.38;4.80;;;;;;;2.09;100.00;100662.78;2074094;28;20037;-67
2021/11/30 02:52:47;;;;;;;6.88;4.82;;;;;;;2.10;100.00;100665.34;2074094;28;20418;-68
2021/11/30 02:53:48;;;;;;;6.80;4.25;;;;;;;2.12;100.00;100648.13;2074092;28;20025;-66
2021/11/30 02:54:53;;;;;;;6.57;4.70;;;;;;;2.15;100.00;100649.81;2074104;28;20068;-66
2021/11/30 02:55:53;;;;;;;8.75;5.10;;;;;;;2.18;100.00;100670.41;2074000;28;20017;-67
2021/11/30 02:56:57;;;;;;;7.33;4.93;;;;;;;2.21;100.00;100647.19;2074061;28;20025;-66
2021/11/30 02:57:57;;;;;;;7.75;5.28;;;;;;;2.23;100.00;100650.63;2065272;28;20014;-67
2021/11/30 02:58:57;;;;;;;7.00;4.63;;;;;;;2.23;100.00;100655.78;2065414;28;20034;-69
2021/11/30 02:59:59;;;;;;;8.97;4.80;;;;;;;2.26;100.00;100650.56;2073910;28;20530;-67
2021/11/30 03:01:02;;;;;;;6.95;4.60;;;;;;;2.26;100.00;100650.56;2074086;28;20022;-68
2021/11/30 03:02:10;;;;;;;6.90;4.22;;;;;;;2.28;100.00;100656.56;2074086;28;20483;-69
2021/11/30 03:03:11;;;;;;;8.15;4.90;;;;;;;2.29;100.00;100650.53;2074007;28;20034;-67
2021/11/30 03:04:13;;;;;;;7.88;4.53;;;;;;;2.30;100.00;100646.25;2074079;28;20033;-69
2021/11/30 03:05:13;;;;;;;7.18;3.95;;;;;;;2.29;100.00;100640.25;2074110;28;20033;-66
2021/11/30 03:06:14;;;;;;;6.97;5.50;;;;;;;2.32;100.00;100639.34;2074055;28;20171;-67
2021/11/30 03:07:17;;;;;;;7.53;5.40;;;;;;;2.31;100.00;100643.66;2074010;28;20042;-68
2021/11/30 03:08:17;;;;;;;8.25;4.50;;;;;;;2.31;100.00;100643.66;2073951;28;20731;-68
2021/11/30 03:09:18;;;;;;;10.27;5.70;;;;;;;2.33;100.00;100629.91;2065230;28;20062;-66
2021/11/30 03:10:19;;;;;;;8.75;4.70;;;;;;;2.34;100.00;100636.75;2065264;28;20069;-67
2021/11/30 03:11:20;;;;;;;10.55;4.57;;;;;;;2.35;100.00;100625.56;2065249;28;20026;-67
2021/11/30 03:12:21;;;;;;;9.53;5.97;;;;;;;2.35;100.00;100629.00;2074050;28;20061;-67
2021/11/30 03:13:22;;;;;;;8.30;4.82;;;;;;;2.36;100.00;100619.56;2073940;28;20414;-66
2021/11/30 03:14:25;;;;;;;8.02;4.72;;;;;;;2.37;100.00;100617.00;2073992;28;20022;-67
2021/11/30 03:15:26;;;;;;;6.47;5.35;;;;;;;2.38;100.00;100602.38;2073897;28;20351;-66
2021/11/30 03:16:26;;;;;;;7.40;4.78;;;;;;;2.38;100.00;100612.66;2073820;28;20102;-68
2021/11/30 03:17:27;;;;;;;10.40;5.75;;;;;;;2.39;100.00;100619.53;2073866;28;20028;-67
2021/11/30 03:18:28;;;;;;;9.67;4.90;;;;;;;2.39;100.00;100604.94;2073883;28;20038;-68
2021/11/30 03:19:28;;;;;;;;;;;;;;;2.41;100.00;100604.91;2074197;28;20137;-67
2021/11/30 03:20:29;;;;;;;5.28;3.95;;;;;;;2.41;100.00;100603.19;2064876;28;19918;-68
2021/11/30 03:21:29;;;;;;;6.43;4.53;;;;;;;2.42;100.00;100609.19;2065164;28;20026;-66
2021/11/30 03:22:30;;;;;;;7.45;4.57;;;;;;;2.43;100.00;100605.75;2073824;28;20038;-66
2021/11/30 03:23:30;;;;;;;5.30;4.67;;;;;;;2.46;100.00;100604.88;2073849;28;20026;-67
2021/11/30 03:24:31;;;;;;;8.38;4.88;;;;;;;2.46;100.00;100605.69;2073907;28;20080;-67
2021/11/30 03:25:32;;;;;;;6.18;4.95;;;;;;;2.48;100.00;100603.97;2073854;28;20041;-67
2021/11/30 03:26:32;;;;;;;7.27;4.07;;;;;;;2.49;100.00;100599.69;2073879;28;20033;-65
2021/11/30 03:27:34;;;;;;;6.83;4.97;;;;;;;2.50;100.00;100601.38;2065096;28;20281;-68
2021/11/30 03:28:34;;;;;;;7.50;4.82;;;;;;;2.50;100.00;100598.81;2065307;28;20088;-68
2021/11/30 03:29:35;;;;;;;7.67;5.77;;;;;;;2.50;100.00;100602.22;2065115;28;20022;-66
2021/11/30 03:30:37;;;;;;;8.50;5.07;;;;;;;2.52;100.00;100604.75;2056974;28;20174;-68
2021/11/30 03:34:02;;;;;;;8.48;4.68;;;;;;;2.54;100.00;100595.31;2073798;28;20128;-68
2021/11/30 03:35:05;;;;;;;8.25;4.88;;;;;;;2.55;100.00;100610.75;2064961;28;20038;-68
2021/11/30 03:36:05;;;;;;;7.40;4.88;;;;;;;2.58;100.00;100596.97;2065020;28;20501;-68
2021/11/30 03:37:07;;;;;;;8.53;4.73;;;;;;;2.60;100.00;100602.09;2065080;28;20019;-65
2021/11/30 03:38:07;;;;;;;;;;;;;;;2.63;100.00;100596.91;2065661;28;20026;-66
2021/11/30 03:39:13;;;;;;;6.25;5.20;;;;;;;2.64;100.00;100596.03;2073806;28;19914;-67
2021/11/30 03:40:14;;;;;;;6.75;4.95;;;;;;;2.63;100.00;100599.50;2065045;28;20054;-66
2021/11/30 03:41:14;;;;;;;6.97;5.10;;;;;;;2.65;100.00;100606.34;2065182;28;20022;-68
2021/11/30 03:42:14;;;;;;;8.60;5.67;;;;;;;2.67;100.00;100590.84;2073832;28;20280;-66
2021/11/30 03:43:14;;;;;;;6.50;5.03;;;;;;;2.67;100.00;100588.28;2073727;28;20042;-69
2021/11/30 03:44:16;;;;;;;7.37;5.07;;;;;;;2.68;100.00;100588.25;2073856;28;20471;-65
2021/11/30 03:45:16;;;;;;;;;;;;;;;2.70;100.00;100585.63;2074289;28;20418;-66
2021/11/30 03:46:17;;;;;;;7.95;4.72;;;;;;;2.72;100.00;100585.63;2073882;28;19944;-68
2021/11/30 03:47:17;;;;;;;6.75;4.57;;;;;;;2.71;100.00;100579.63;2073885;28;20650;-67
2021/11/30 03:48:18;;;;;;;10.65;5.60;;;;;;;2.74;100.00;100589.88;2065163;28;20034;-67
2021/11/30 03:49:20;;;;;;;8.10;5.43;;;;;;;2.77;100.00;100583.84;2065188;28;20434;-67
2021/11/30 03:50:20;;;;;;;;;;;;;;;2.77;100.00;100584.69;2074209;28;20037;-66
2021/11/30 03:51:20;;;;;;;6.18;5.03;;;;;;;2.79;100.00;100574.34;2073766;28;19967;-67
2021/11/30 03:52:20;;;;;;;6.47;4.23;;;;;;;2.82;100.00;100572.59;2064913;28;20080;-67
2021/11/30 03:53:21;;;;;;;6.77;5.33;;;;;;;2.84;100.00;100580.28;2065070;28;20027;-68
2021/11/30 03:54:22;;;;;;;7.45;5.28;;;;;;;2.83;100.00;100574.28;2073741;28;20025;-67
2021/11/30 03:55:22;;;;;;;8.05;6.05;;;;;;;2.83;100.00;100571.72;2073713;28;20109;-66
2021/11/30 03:56:23;;;;;;;5.67;4.83;;;;;;;2.87;100.00;100569.09;2073576;28;20029;-68
2021/11/30 03:57:23;;;;;;;6.80;5.63;;;;;;;2.88;100.00;100568.22;2064816;28;20037;-68
2021/11/30 03:58:24;;;;;;;6.90;4.97;;;;;;;2.88;100.00;100565.63;2064915;28;20034;-67
2021/11/30 03:59:24;;;;;;;6.78;5.82;;;;;;;2.90;100.00;100561.31;2073560;28;20096;-65
2021/11/30 04:00:25;;;;;;;6.78;5.95;;;;;;;2.92;100.00;100567.28;2073583;28;20026;-67
2021/11/30 04:01:25;;;;;;;9.13;5.67;;;;;;;2.92;100.00;100563.00;2073637;28;20021;-66
2021/11/30 04:02:26;;;;;;;7.13;6.07;;;;;;;2.93;100.00;100556.09;2073634;28;20033;-67
2021/11/30 04:03:29;;;;;;;8.07;5.97;;;;;;;2.95;100.00;100556.94;2073595;28;20483;-69
2021/11/30 04:04:35;;;;;;;8.57;5.55;;;;;;;2.94;100.00;100566.41;2073599;28;20084;-67
2021/11/30 04:05:35;;;;;;;8.68;6.20;;;;;;;2.98;100.00;100562.06;2073555;28;20034;-69
2021/11/30 04:06:35;;;;;;;8.23;6.43;;;;;;;2.99;100.00;100568.91;2073684;28;20481;-66
2021/11/30 04:07:36;;;;;;;8.47;5.77;;;;;;;3.00;100.00;100562.88;2073603;28;20318;-68
2021/11/30 04:08:38;;;;;;;8.17;6.30;;;;;;;3.00;100.00;100570.59;2073578;28;20092;-65
2021/11/30 04:09:38;;;;;;;11.30;7.07;;;;;;;3.04;100.00;100561.09;2073617;28;20418;-66
2021/11/30 04:10:39;;;;;;;7.97;6.17;;;;;;;3.04;100.00;100561.09;2073644;28;20097;-65
2021/11/30 04:11:40;;;;;;;9.20;6.93;;;;;;;3.06;100.00;100567.94;2064836;28;20496;-68
2021/11/30 04:12:40;;;;;;;8.18;6.43;;;;;;;3.06;100.00;100564.50;2064963;28;20104;-65
2021/11/30 04:13:40;;;;;;;8.63;6.00;;;;;;;3.08;100.00;100557.63;2073634;28;20109;-68
2021/11/30 04:14:41;;;;;;;9.93;6.73;;;;;;;3.12;100.00;100563.56;2073644;28;20028;-69
2021/11/30 04:15:41;;;;;;;11.33;6.27;;;;;;;3.09;100.00;100560.13;2073661;28;20026;-68
2021/11/30 04:16:42;;;;;;;13.27;6.97;;;;;;;3.12;100.00;100559.25;2073634;28;20034;-65
2021/11/30 04:17:42;;;;;;;7.53;6.50;;;;;;;3.16;100.00;100549.75;2073624;28;20047;-67
2021/11/30 04:18:42;;;;;;;11.67;6.90;;;;;;;3.15;100.00;100561.78;2073598;28;20083;-64
2021/11/30 04:19:43;;;;;;;7.57;6.13;;;;;;;3.17;100.00;100561.75;2073557;28;20062;-67
2021/11/30 04:20:43;;;;;;;7.60;6.07;;;;;;;3.17;100.00;100557.47;2073566;28;20026;-66
2021/11/30 04:21:44;;;;;;;12.37;6.63;;;;;;;3.17;100.00;100551.44;2073518;28;20092;-66
2021/11/30 04:22:44;;;;;;;8.02;7.22;;;;;;;3.19;100.00;100545.38;2064791;28;20113;-67
2021/11/30 04:23:44;;;;;;;7.77;6.60;;;;;;;3.21;100.00;100545.34;2064830;28;20036;-69
2021/11/30 04:24:44;;;;;;;8.27;7.07;;;;;;;3.22;100.00;100539.34;2073523;28;20022;-67
2021/11/30 04:25:45;;;;;;;8.70;7.23;;;;;;;3.22;100.00;100549.66;2064756;28;20068;-67
2021/11/30 04:26:45;;;;;;;8.00;7.17;;;;;;;3.25;100.00;100543.59;2056739;28;20054;-66
2021/11/30 04:27:45;;;;;;;10.87;7.47;;;;;;;3.26;100.00;100540.97;2056726;28;20125;-68
2021/11/30 04:28:46;;;;;;;10.00;7.57;;;;;;;3.26;100.00;100540.97;2056666;28;20019;-67
2021/11/30 04:29:47;;;;;;;8.27;7.25;;;;;;;3.28;100.00;100539.22;2064869;28;20050;-66
2021/11/30 04:30:47;;;;;;;11.00;6.97;;;;;;;3.29;100.00;100538.34;2064780;28;20026;-67
2021/11/30 04:31:47;;;;;;;10.73;6.97;;;;;;;3.30;100.00;100536.63;2064794;28;20026;-69
2021/11/30 04:32:48;;;;;;;8.77;7.17;;;;;;;3.32;100.00;100551.19;2073343;28;20041;-66
2021/11/30 04:33:48;;;;;;;9.73;7.22;;;;;;;3.34;100.00;100546.88;2073522;28;20030;-67
2021/11/30 04:34:48;;;;;;;9.43;7.70;;;;;;;3.36;100.00;100549.41;2064768;28;20515;-67
2021/11/30 04:35:49;;;;;;;10.60;9.10;;;;;;;3.37;100.00;100542.50;2064792;28;20066;-66
2021/11/30 04:36:49;;;;;;;8.80;7.43;;;;;;;3.41;100.00;100551.91;2073513;28;20052;-65
2021/11/30 04:37:49;;;;;;;8.53;7.20;;;;;;;3.44;100.00;100541.53;2073457;28;20475;-68
2021/11/30 04:38:50;;;;;;;7.53;6.67;;;;;;;3.46;100.00;100542.38;2073548;28;20076;-67
2021/11/30 04:39:50;;;;;;;8.30;6.60;;;;;;;3.46;100.00;100537.22;2073400;28;20026;-65
2021/11/30 04:40:50;;;;;;;9.43;7.10;;;;;;;3.47;100.00;100544.06;2064763;28;20026;-67
2021/11/30 04:41:51;;;;;;;8.87;7.03;;;;;;;3.49;100.00;100542.28;2064724;28;20022;-67
2021/11/30 04:42:51;;;;;;;7.87;6.57;;;;;;;3.49;100.00;100539.72;2064660;28;20046;-67
2021/11/30 04:43:52;;;;;;;11.02;7.68;;;;;;;3.51;100.00;100530.22;2073428;28;20020;-66
2021/11/30 04:45:15;;;;;;;10.13;7.50;;;;;;;3.52;100.00;100526.75;2073522;28;20407;-67
2021/11/30 04:46:19;;;;;;;9.32;7.47;;;;;;;3.56;100.00;100525.81;2064625;28;20364;-67
2021/11/30 04:47:20;;;;;;;9.63;7.55;;;;;;;3.57;100.00;100524.97;2065236;28;20053;-68
2021/11/30 04:48:21;;;;;;;9.20;7.33;;;;;;;3.60;100.00;100536.97;2074504;28;20021;-65
2021/11/30 04:50:41;;;;;;;14.10;8.20;;;;;;;3.64;100.00;100519.69;2068183;28;20514;-67
2021/11/30 04:51:42;;;;;;;11.60;8.30;;;;;;;3.66;100.00;100525.69;2075015;28;20025;-68
2021/11/30 04:52:44;;;;;;;12.70;8.43;;;;;;;3.69;100.00;100523.00;2075023;28;20079;-67
2021/11/30 04:53:46;;;;;;;12.70;7.68;;;;;;;3.70;100.00;100522.16;2075054;28;20034;-69
2021/11/30 04:54:46;;;;;;;10.45;8.93;;;;;;;3.72;100.00;100521.25;2074997;28;20105;-68
2021/11/30 04:55:50;;;;;;;10.52;8.20;;;;;;;3.73;100.00;100524.69;2075008;28;20446;-68